This is the latest recevied weather packets stored in our database for station/object OE7BJT-13. If no packets are shown the sender has not sent any weather packets the latest 1 day(s).
| Time | Temp. | Humidity | Pressure | Rain* | Wind** | Luminosity | Snow |
|---|---|---|---|---|---|---|---|
| 1778069010 | 23.33° C | 35% | 1005 hPa | - | - | - | - |
| 1778067193 | 23.33° C | 35% | 1005 hPa | - | - | - | - |
| 1778065376 | 21.67° C | 36% | 1005 hPa | - | - | - | - |
| 1778064165 | 22.78° C | 35% | 1006 hPa | - | - | - | - |
| 1778062954 | 21.67° C | 40% | 1006 hPa | - | - | - | - |
| 1778062348 | 21.11° C | 46% | 1006 hPa | - | - | - | - |
| 1778061137 | 17.22° C | 57% | 1007 hPa | - | - | - | - |
| 1778059320 | 16.11° C | 64% | 1007 hPa | - | - | - | - |
| 1778058109 | 16.67° C | 62% | 1007 hPa | - | - | - | - |
| 1778056897 | 16.67° C | 62% | 1007 hPa | - | - | - | - |
| 1778055081 | 15.56° C | 66% | 1007 hPa | - | - | - | - |
| 1778054475 | 15° C | 67% | 1007 hPa | - | - | - | - |
| 1778053264 | 13.33° C | 81% | 1008 hPa | - | - | - | - |
| 1778052053 | 13.33° C | 80% | 1008 hPa | - | - | - | - |
| 1778050842 | 12.22° C | 83% | 1008 hPa | - | - | - | - |
| 1778050236 | 12.22° C | 86% | 1008 hPa | - | - | - | - |
| 1778049631 | 11.67° C | 85% | 1008 hPa | - | - | - | - |
| 1778049025 | 10.56° C | 91% | 1008 hPa | - | - | - | - |
| 1778047814 | 11.11° C | 89% | 1008 hPa | - | - | - | - |
| 1778046603 | 10.56° C | 89% | 1009 hPa | - | - | - | - |
| 1778045997 | 10° C | 97% | 1009 hPa | - | - | - | - |
| 1778044786 | 8.89° C | 10% | - | - | - | - | - |
| 1778044180 | 8.89° C | 10% | - | - | - | - | - |
| 1778043574 | 8.33° C | 10% | - | - | - | - | - |
| 1778042968 | 8.33° C | 10% | - | - | - | - | - |
* Rain since midnight (hover to see other rain measurements)
** Current wind speed in m/s (hover to see current wind gust speed)